Hlavní strana
METAR-TAF:

METAR-TAF

Letiště :

Middle Peninsula Regional Airport

West Point, Virginie, Spojené státy americké

zeměpisná šířka: 37-31-16N, zeměpisná délka: 076-45-52W, výška: 7 m

Aktuální stav počasí

Zpráva byla vytvořena před 20 minutami, v 04:35 UTC
Východojihovýchodní vítr 14 kt s nárazy do 18 kt
Teplota 13°C
Vlhkost vzduchu 88%
Tlak 1016 hPa
Viditelnost: 16.1 km
Zataženo ve výšce 10000 ft

METAR: KFYJ 250435Z AUTO 11014G18KT 10SM OVC100 13/11 A3000 RMK AO1 T01300110

Čas: 23:55 (04:55 UTC)


TAF: chybějící

Stav a předpovědi počasí z více než 4 000 letišť (zprávy METAR a TAF).

Červené a žluté tečky na mapě představují dostupné meteorologické stanice.

Když kurzor umístíte na tečku, zobrazí se název stanice.

Pak kliknutím zobrazíte stav a předpověď počasí.

Chcete-li změnit mapu, kliknutím na zelené tlačítko se znaménkem +mapu přiblížíte, kliknutím na zelené tlačítko se znaménkem – mapu oddálíte a kliknutím na zelené šipky přejdete na sousední mapy.


METAR-TAF: